sensor_id;sensor_type;location;lat;lon;timestamp;temperature;humidity
69901;DHT22;57183;50.930;5.406;2022-09-03T00:07:46;17.60;78.80
69901;DHT22;57183;50.930;5.406;2022-09-03T00:10:27;17.60;78.90
69901;DHT22;57183;50.930;5.406;2022-09-03T00:12:56;17.60;79.00
69901;DHT22;57183;50.930;5.406;2022-09-03T00:15:25;17.50;79.20
69901;DHT22;57183;50.930;5.406;2022-09-03T00:17:58;17.40;79.20
69901;DHT22;57183;50.930;5.406;2022-09-03T00:20:44;17.40;79.80
69901;DHT22;57183;50.930;5.406;2022-09-03T00:23:18;17.40;79.50
69901;DHT22;57183;50.930;5.406;2022-09-03T00:29:00;17.40;79.60
69901;DHT22;57183;50.930;5.406;2022-09-03T00:31:34;17.40;79.70
69901;DHT22;57183;50.930;5.406;2022-09-03T00:34:18;17.20;81.20
69901;DHT22;57183;50.930;5.406;2022-09-03T00:36:46;17.20;81.90
69901;DHT22;57183;50.930;5.406;2022-09-03T00:39:16;17.20;82.10
69901;DHT22;57183;50.930;5.406;2022-09-03T00:42:16;17.20;82.00
69901;DHT22;57183;50.930;5.406;2022-09-03T00:55:56;17.30;81.60
69901;DHT22;57183;50.930;5.406;2022-09-03T00:58:33;17.20;82.20
69901;DHT22;57183;50.930;5.406;2022-09-03T01:01:14;17.10;83.10
69901;DHT22;57183;50.930;5.406;2022-09-03T01:03:51;17.10;83.20
69901;DHT22;57183;50.930;5.406;2022-09-03T01:06:44;17.20;83.40
69901;DHT22;57183;50.930;5.406;2022-09-03T01:12:14;17.20;83.80
69901;DHT22;57183;50.930;5.406;2022-09-03T01:15:16;17.20;84.00
69901;DHT22;57183;50.930;5.406;2022-09-03T01:18:10;17.20;83.40
69901;DHT22;57183;50.930;5.406;2022-09-03T01:21:17;17.20;83.10
69901;DHT22;57183;50.930;5.406;2022-09-03T01:30:02;17.00;84.90
69901;DHT22;57183;50.930;5.406;2022-09-03T01:32:42;17.20;86.00
69901;DHT22;57183;50.930;5.406;2022-09-03T01:41:00;17.30;84.90
69901;DHT22;57183;50.930;5.406;2022-09-03T01:43:59;17.30;85.00
69901;DHT22;57183;50.930;5.406;2022-09-03T01:46:39;17.20;85.40
69901;DHT22;57183;50.930;5.406;2022-09-03T01:52:04;17.30;85.60
69901;DHT22;57183;50.930;5.406;2022-09-03T02:00:23;17.60;85.70
69901;DHT22;57183;50.930;5.406;2022-09-03T02:02:51;17.60;85.10
69901;DHT22;57183;50.930;5.406;2022-09-03T02:05:26;17.50;85.80
69901;DHT22;57183;50.930;5.406;2022-09-03T02:08:02;17.50;86.90
69901;DHT22;57183;50.930;5.406;2022-09-03T02:10:42;17.40;86.90
69901;DHT22;57183;50.930;5.406;2022-09-03T02:13:15;17.50;88.50
69901;DHT22;57183;50.930;5.406;2022-09-03T02:15:45;17.80;86.70
69901;DHT22;57183;50.930;5.406;2022-09-03T02:18:16;17.90;85.90
69901;DHT22;57183;50.930;5.406;2022-09-03T02:20:43;17.90;87.20
69901;DHT22;57183;50.930;5.406;2022-09-03T02:23:11;17.80;87.50
69901;DHT22;57183;50.930;5.406;2022-09-03T02:25:44;17.80;87.70
69901;DHT22;57183;50.930;5.406;2022-09-03T02:28:11;17.80;87.60
69901;DHT22;57183;50.930;5.406;2022-09-03T02:30:39;17.70;87.70
69901;DHT22;57183;50.930;5.406;2022-09-03T02:33:05;17.70;88.30
69901;DHT22;57183;50.930;5.406;2022-09-03T02:35:30;17.80;87.90
69901;DHT22;57183;50.930;5.406;2022-09-03T02:37:56;17.70;89.00
69901;DHT22;57183;50.930;5.406;2022-09-03T02:40:22;17.70;89.40
69901;DHT22;57183;50.930;5.406;2022-09-03T02:42:48;17.70;89.00
69901;DHT22;57183;50.930;5.406;2022-09-03T02:45:26;17.70;88.90
69901;DHT22;57183;50.930;5.406;2022-09-03T02:47:58;17.80;88.90
69901;DHT22;57183;50.930;5.406;2022-09-03T02:50:24;17.70;87.70
69901;DHT22;57183;50.930;5.406;2022-09-03T02:52:50;17.80;87.40
69901;DHT22;57183;50.930;5.406;2022-09-03T02:55:17;17.70;87.80
69901;DHT22;57183;50.930;5.406;2022-09-03T02:57:44;17.60;88.10
69901;DHT22;57183;50.930;5.406;2022-09-03T03:00:10;17.40;88.60
69901;DHT22;57183;50.930;5.406;2022-09-03T03:02:36;17.40;89.50
69901;DHT22;57183;50.930;5.406;2022-09-03T03:05:03;17.30;90.00
69901;DHT22;57183;50.930;5.406;2022-09-03T03:07:36;17.30;90.10
69901;DHT22;57183;50.930;5.406;2022-09-03T03:10:03;17.30;90.60
69901;DHT22;57183;50.930;5.406;2022-09-03T03:12:29;17.50;90.00
69901;DHT22;57183;50.930;5.406;2022-09-03T03:14:55;17.40;90.10
69901;DHT22;57183;50.930;5.406;2022-09-03T03:17:21;17.40;90.30
69901;DHT22;57183;50.930;5.406;2022-09-03T03:19:47;17.40;90.00
69901;DHT22;57183;50.930;5.406;2022-09-03T03:22:13;17.40;90.00
69901;DHT22;57183;50.930;5.406;2022-09-03T03:24:39;17.40;90.40
69901;DHT22;57183;50.930;5.406;2022-09-03T03:27:05;17.60;90.90
69901;DHT22;57183;50.930;5.406;2022-09-03T03:29:32;17.70;89.50
69901;DHT22;57183;50.930;5.406;2022-09-03T03:31:58;17.80;89.70
69901;DHT22;57183;50.930;5.406;2022-09-03T03:34:24;17.80;88.80
69901;DHT22;57183;50.930;5.406;2022-09-03T03:36:49;17.80;90.30
69901;DHT22;57183;50.930;5.406;2022-09-03T03:39:15;17.80;90.50
69901;DHT22;57183;50.930;5.406;2022-09-03T03:41:41;17.80;90.60
69901;DHT22;57183;50.930;5.406;2022-09-03T03:44:07;17.70;90.90
69901;DHT22;57183;50.930;5.406;2022-09-03T03:46:38;17.80;90.90
69901;DHT22;57183;50.930;5.406;2022-09-03T03:49:06;17.80;91.10
69901;DHT22;57183;50.930;5.406;2022-09-03T03:51:33;17.90;90.30
69901;DHT22;57183;50.930;5.406;2022-09-03T03:53:59;17.80;90.50
69901;DHT22;57183;50.930;5.406;2022-09-03T03:56:25;17.70;90.80
69901;DHT22;57183;50.930;5.406;2022-09-03T03:58:52;17.70;90.90
69901;DHT22;57183;50.930;5.406;2022-09-03T04:01:20;17.60;91.20
69901;DHT22;57183;50.930;5.406;2022-09-03T04:03:46;17.60;91.20
69901;DHT22;57183;50.930;5.406;2022-09-03T04:06:14;17.60;91.10
69901;DHT22;57183;50.930;5.406;2022-09-03T04:08:41;17.60;91.10
69901;DHT22;57183;50.930;5.406;2022-09-03T04:11:09;17.60;91.40
69901;DHT22;57183;50.930;5.406;2022-09-03T04:13:38;17.60;91.60
69901;DHT22;57183;50.930;5.406;2022-09-03T04:16:08;17.60;92.00
69901;DHT22;57183;50.930;5.406;2022-09-03T04:18:35;17.60;91.90
69901;DHT22;57183;50.930;5.406;2022-09-03T04:21:07;17.60;91.80
69901;DHT22;57183;50.930;5.406;2022-09-03T04:23:35;17.60;91.90
69901;DHT22;57183;50.930;5.406;2022-09-03T04:26:01;17.60;92.50
69901;DHT22;57183;50.930;5.406;2022-09-03T04:28:27;17.50;92.40
69901;DHT22;57183;50.930;5.406;2022-09-03T04:30:53;17.60;92.80
69901;DHT22;57183;50.930;5.406;2022-09-03T04:33:19;17.60;93.10
69901;DHT22;57183;50.930;5.406;2022-09-03T04:35:45;17.60;93.00
69901;DHT22;57183;50.930;5.406;2022-09-03T04:38:11;17.50;93.10
69901;DHT22;57183;50.930;5.406;2022-09-03T04:40:37;17.40;93.20
69901;DHT22;57183;50.930;5.406;2022-09-03T04:43:03;17.50;93.50
69901;DHT22;57183;50.930;5.406;2022-09-03T04:45:29;17.50;93.30
69901;DHT22;57183;50.930;5.406;2022-09-03T04:47:56;17.50;93.20
69901;DHT22;57183;50.930;5.406;2022-09-03T04:50:22;17.40;93.50
69901;DHT22;57183;50.930;5.406;2022-09-03T04:52:48;17.40;93.60
69901;DHT22;57183;50.930;5.406;2022-09-03T04:55:13;17.40;93.70
69901;DHT22;57183;50.930;5.406;2022-09-03T04:57:40;17.40;93.80
69901;DHT22;57183;50.930;5.406;2022-09-03T05:00:08;17.40;93.70
69901;DHT22;57183;50.930;5.406;2022-09-03T05:02:36;17.40;93.90
69901;DHT22;57183;50.930;5.406;2022-09-03T05:05:02;17.50;93.80
69901;DHT22;57183;50.930;5.406;2022-09-03T05:07:29;17.50;93.80
69901;DHT22;57183;50.930;5.406;2022-09-03T05:10:05;17.50;94.20
69901;DHT22;57183;50.930;5.406;2022-09-03T05:12:31;17.50;94.40
69901;DHT22;57183;50.930;5.406;2022-09-03T05:14:58;17.50;94.30
69901;DHT22;57183;50.930;5.406;2022-09-03T05:17:25;17.40;94.70
69901;DHT22;57183;50.930;5.406;2022-09-03T05:19:51;17.60;94.70
69901;DHT22;57183;50.930;5.406;2022-09-03T05:22:18;17.40;94.50
69901;DHT22;57183;50.930;5.406;2022-09-03T05:24:48;17.70;94.40
69901;DHT22;57183;50.930;5.406;2022-09-03T05:27:15;17.80;94.10
69901;DHT22;57183;50.930;5.406;2022-09-03T05:29:45;17.80;94.20
69901;DHT22;57183;50.930;5.406;2022-09-03T05:32:11;17.70;94.40
69901;DHT22;57183;50.930;5.406;2022-09-03T05:34:38;17.80;94.50
69901;DHT22;57183;50.930;5.406;2022-09-03T05:37:04;17.80;94.60
69901;DHT22;57183;50.930;5.406;2022-09-03T05:39:29;17.80;94.70
69901;DHT22;57183;50.930;5.406;2022-09-03T05:41:55;17.80;94.90
69901;DHT22;57183;50.930;5.406;2022-09-03T05:44:21;17.80;95.00
69901;DHT22;57183;50.930;5.406;2022-09-03T05:46:48;17.90;94.80
69901;DHT22;57183;50.930;5.406;2022-09-03T05:49:14;18.00;94.60
69901;DHT22;57183;50.930;5.406;2022-09-03T05:51:40;18.00;94.70
69901;DHT22;57183;50.930;5.406;2022-09-03T05:54:07;18.20;94.80
69901;DHT22;57183;50.930;5.406;2022-09-03T05:56:36;18.30;94.90
69901;DHT22;57183;50.930;5.406;2022-09-03T05:59:05;18.30;94.70
69901;DHT22;57183;50.930;5.406;2022-09-03T06:01:35;18.30;94.40
69901;DHT22;57183;50.930;5.406;2022-09-03T06:04:04;18.50;94.20
69901;DHT22;57183;50.930;5.406;2022-09-03T06:06:32;18.60;94.00
69901;DHT22;57183;50.930;5.406;2022-09-03T06:09:00;18.70;93.70
69901;DHT22;57183;50.930;5.406;2022-09-03T06:11:27;18.80;93.90
69901;DHT22;57183;50.930;5.406;2022-09-03T06:13:58;18.90;93.70
69901;DHT22;57183;50.930;5.406;2022-09-03T06:16:26;19.00;93.70
69901;DHT22;57183;50.930;5.406;2022-09-03T06:18:52;19.10;93.60
69901;DHT22;57183;50.930;5.406;2022-09-03T06:21:18;19.20;93.50
69901;DHT22;57183;50.930;5.406;2022-09-03T06:23:49;19.30;93.70
69901;DHT22;57183;50.930;5.406;2022-09-03T06:26:16;19.30;93.50
69901;DHT22;57183;50.930;5.406;2022-09-03T06:28:43;19.40;93.80
69901;DHT22;57183;50.930;5.406;2022-09-03T06:31:13;19.50;93.70
69901;DHT22;57183;50.930;5.406;2022-09-03T06:33:40;19.50;93.40
69901;DHT22;57183;50.930;5.406;2022-09-03T06:36:09;19.60;93.40
69901;DHT22;57183;50.930;5.406;2022-09-03T06:38:37;19.50;93.40
69901;DHT22;57183;50.930;5.406;2022-09-03T06:41:12;19.50;92.90
69901;DHT22;57183;50.930;5.406;2022-09-03T06:43:40;19.50;93.50
69901;DHT22;57183;50.930;5.406;2022-09-03T06:46:12;19.50;93.80
69901;DHT22;57183;50.930;5.406;2022-09-03T06:48:38;19.50;93.80
69901;DHT22;57183;50.930;5.406;2022-09-03T06:51:16;19.50;93.80
69901;DHT22;57183;50.930;5.406;2022-09-03T06:53:47;19.50;93.30
69901;DHT22;57183;50.930;5.406;2022-09-03T06:56:16;19.50;93.10
69901;DHT22;57183;50.930;5.406;2022-09-03T06:58:46;19.50;93.40
69901;DHT22;57183;50.930;5.406;2022-09-03T07:01:14;19.40;93.60
69901;DHT22;57183;50.930;5.406;2022-09-03T07:03:41;19.30;93.40
69901;DHT22;57183;50.930;5.406;2022-09-03T07:06:10;19.30;93.60
69901;DHT22;57183;50.930;5.406;2022-09-03T07:08:36;19.30;93.50
69901;DHT22;57183;50.930;5.406;2022-09-03T07:11:06;19.50;93.10
69901;DHT22;57183;50.930;5.406;2022-09-03T07:13:36;19.60;92.00
69901;DHT22;57183;50.930;5.406;2022-09-03T07:16:12;19.80;91.70
69901;DHT22;57183;50.930;5.406;2022-09-03T07:18:38;20.20;91.00
69901;DHT22;57183;50.930;5.406;2022-09-03T07:21:09;20.60;89.50
69901;DHT22;57183;50.930;5.406;2022-09-03T07:23:36;21.00;87.30
69901;DHT22;57183;50.930;5.406;2022-09-03T07:26:14;21.50;84.50
69901;DHT22;57183;50.930;5.406;2022-09-03T07:28:41;21.80;82.10
69901;DHT22;57183;50.930;5.406;2022-09-03T07:31:09;22.10;81.50
69901;DHT22;57183;50.930;5.406;2022-09-03T07:33:37;22.40;77.40
69901;DHT22;57183;50.930;5.406;2022-09-03T07:36:05;22.50;75.90
69901;DHT22;57183;50.930;5.406;2022-09-03T07:38:32;22.70;77.60
69901;DHT22;57183;50.930;5.406;2022-09-03T07:40:59;22.90;76.30
69901;DHT22;57183;50.930;5.406;2022-09-03T07:43:31;23.00;74.30
69901;DHT22;57183;50.930;5.406;2022-09-03T07:45:58;23.10;74.80
69901;DHT22;57183;50.930;5.406;2022-09-03T07:48:24;23.30;73.40
69901;DHT22;57183;50.930;5.406;2022-09-03T07:50:49;23.30;72.20
69901;DHT22;57183;50.930;5.406;2022-09-03T07:53:16;23.20;72.50
69901;DHT22;57183;50.930;5.406;2022-09-03T07:55:42;23.40;72.50
69901;DHT22;57183;50.930;5.406;2022-09-03T07:58:09;23.50;72.80
69901;DHT22;57183;50.930;5.406;2022-09-03T08:00:39;23.50;72.10
69901;DHT22;57183;50.930;5.406;2022-09-03T08:03:05;23.60;71.50
69901;DHT22;57183;50.930;5.406;2022-09-03T08:05:34;23.90;72.10
69901;DHT22;57183;50.930;5.406;2022-09-03T08:08:02;24.00;71.40
69901;DHT22;57183;50.930;5.406;2022-09-03T08:10:28;24.00;70.70
69901;DHT22;57183;50.930;5.406;2022-09-03T08:12:58;24.30;70.90
69901;DHT22;57183;50.930;5.406;2022-09-03T08:15:25;24.40;69.40
69901;DHT22;57183;50.930;5.406;2022-09-03T08:17:51;24.40;71.50
69901;DHT22;57183;50.930;5.406;2022-09-03T08:20:18;24.60;70.00
69901;DHT22;57183;50.930;5.406;2022-09-03T08:22:43;24.50;70.20
69901;DHT22;57183;50.930;5.406;2022-09-03T08:25:09;24.60;70.00
69901;DHT22;57183;50.930;5.406;2022-09-03T08:27:35;24.70;70.70
69901;DHT22;57183;50.930;5.406;2022-09-03T08:30:00;24.80;70.40
69901;DHT22;57183;50.930;5.406;2022-09-03T08:32:28;24.90;70.00
69901;DHT22;57183;50.930;5.406;2022-09-03T08:34:54;24.70;71.30
69901;DHT22;57183;50.930;5.406;2022-09-03T08:37:19;24.80;71.90
69901;DHT22;57183;50.930;5.406;2022-09-03T08:39:45;24.70;72.90
69901;DHT22;57183;50.930;5.406;2022-09-03T08:42:40;24.90;72.70
69901;DHT22;57183;50.930;5.406;2022-09-03T08:45:14;25.20;73.00
69901;DHT22;57183;50.930;5.406;2022-09-03T08:47:56;25.60;71.20
69901;DHT22;57183;50.930;5.406;2022-09-03T08:50:26;26.00;70.20
69901;DHT22;57183;50.930;5.406;2022-09-03T08:53:15;26.20;69.30
69901;DHT22;57183;50.930;5.406;2022-09-03T08:56:00;26.60;69.50
69901;DHT22;57183;50.930;5.406;2022-09-03T08:58:32;26.40;68.60
69901;DHT22;57183;50.930;5.406;2022-09-03T09:06:18;26.40;68.30
69901;DHT22;57183;50.930;5.406;2022-09-03T09:14:14;26.40;70.50
69901;DHT22;57183;50.930;5.406;2022-09-03T09:22:08;27.20;68.90
69901;DHT22;57183;50.930;5.406;2022-09-03T09:24:42;27.30;70.40
69901;DHT22;57183;50.930;5.406;2022-09-03T09:27:12;27.30;70.20
69901;DHT22;57183;50.930;5.406;2022-09-03T09:29:42;27.50;70.50
69901;DHT22;57183;50.930;5.406;2022-09-03T09:32:12;27.50;69.90
69901;DHT22;57183;50.930;5.406;2022-09-03T09:34:39;27.40;71.30
69901;DHT22;57183;50.930;5.406;2022-09-03T09:37:11;27.50;71.10
69901;DHT22;57183;50.930;5.406;2022-09-03T09:39:38;27.20;71.30
69901;DHT22;57183;50.930;5.406;2022-09-03T09:44:35;26.80;73.30
69901;DHT22;57183;50.930;5.406;2022-09-03T09:47:07;26.80;73.50
69901;DHT22;57183;50.930;5.406;2022-09-03T09:49:51;26.90;73.60
69901;DHT22;57183;50.930;5.406;2022-09-03T09:52:18;27.10;73.70
69901;DHT22;57183;50.930;5.406;2022-09-03T09:54:46;27.40;73.90
69901;DHT22;57183;50.930;5.406;2022-09-03T09:57:23;27.60;73.00
69901;DHT22;57183;50.930;5.406;2022-09-03T10:00:00;27.60;74.00
69901;DHT22;57183;50.930;5.406;2022-09-03T10:02:27;27.40;75.00
69901;DHT22;57183;50.930;5.406;2022-09-03T10:05:21;27.10;75.40
69901;DHT22;57183;50.930;5.406;2022-09-03T10:08:00;26.80;76.80
69901;DHT22;57183;50.930;5.406;2022-09-03T10:10:26;26.60;77.10
69901;DHT22;57183;50.930;5.406;2022-09-03T10:13:08;26.40;77.60
69901;DHT22;57183;50.930;5.406;2022-09-03T10:15:41;26.40;77.90
69901;DHT22;57183;50.930;5.406;2022-09-03T10:21:19;26.50;77.40
69901;DHT22;57183;50.930;5.406;2022-09-03T10:26:23;26.60;76.60
69901;DHT22;57183;50.930;5.406;2022-09-03T10:29:01;26.50;76.90
69901;DHT22;57183;50.930;5.406;2022-09-03T10:50:58;26.70;76.50
69901;DHT22;57183;50.930;5.406;2022-09-03T11:06:51;26.90;74.40
69901;DHT22;57183;50.930;5.406;2022-09-03T11:09:28;27.10;74.30
69901;DHT22;57183;50.930;5.406;2022-09-03T11:14:37;27.30;73.80
69901;DHT22;57183;50.930;5.406;2022-09-03T11:17:11;27.40;74.00
69901;DHT22;57183;50.930;5.406;2022-09-03T11:19:46;27.20;73.20
69901;DHT22;57183;50.930;5.406;2022-09-03T11:22:15;27.00;74.30
69901;DHT22;57183;50.930;5.406;2022-09-03T11:24:45;26.70;73.50
69901;DHT22;57183;50.930;5.406;2022-09-03T11:27:34;26.70;74.60
69901;DHT22;57183;50.930;5.406;2022-09-03T11:30:04;26.80;75.20
69901;DHT22;57183;50.930;5.406;2022-09-03T11:38:02;27.10;74.70
69901;DHT22;57183;50.930;5.406;2022-09-03T11:40:34;27.00;75.30
69901;DHT22;57183;50.930;5.406;2022-09-03T11:43:28;27.30;74.20
69901;DHT22;57183;50.930;5.406;2022-09-03T11:46:08;27.60;73.80
69901;DHT22;57183;50.930;5.406;2022-09-03T11:48:45;27.60;72.60
69901;DHT22;57183;50.930;5.406;2022-09-03T11:51:35;27.40;72.70
69901;DHT22;57183;50.930;5.406;2022-09-03T11:56:29;27.20;73.50
69901;DHT22;57183;50.930;5.406;2022-09-03T12:01:32;27.40;72.60
69901;DHT22;57183;50.930;5.406;2022-09-03T12:04:04;27.20;73.00
69901;DHT22;57183;50.930;5.406;2022-09-03T12:06:48;27.20;71.80
69901;DHT22;57183;50.930;5.406;2022-09-03T12:18:30;27.30;72.90
69901;DHT22;57183;50.930;5.406;2022-09-03T12:23:39;27.20;71.50
69901;DHT22;57183;50.930;5.406;2022-09-03T12:26:10;27.40;71.90
69901;DHT22;57183;50.930;5.406;2022-09-03T12:28:40;27.60;71.10
69901;DHT22;57183;50.930;5.406;2022-09-03T12:31:16;27.70;70.90
69901;DHT22;57183;50.930;5.406;2022-09-03T12:34:12;28.00;70.20
69901;DHT22;57183;50.930;5.406;2022-09-03T12:36:45;28.50;69.10
69901;DHT22;57183;50.930;5.406;2022-09-03T12:39:26;28.70;67.80
69901;DHT22;57183;50.930;5.406;2022-09-03T12:44:26;29.20;66.60
69901;DHT22;57183;50.930;5.406;2022-09-03T12:49:45;29.30;63.50
69901;DHT22;57183;50.930;5.406;2022-09-03T12:52:19;29.00;65.50
69901;DHT22;57183;50.930;5.406;2022-09-03T12:57:50;28.90;67.90
69901;DHT22;57183;50.930;5.406;2022-09-03T13:00:18;28.90;67.90
69901;DHT22;57183;50.930;5.406;2022-09-03T13:02:49;29.00;66.60
69901;DHT22;57183;50.930;5.406;2022-09-03T13:05:40;29.20;66.50
69901;DHT22;57183;50.930;5.406;2022-09-03T13:08:08;29.20;65.90
69901;DHT22;57183;50.930;5.406;2022-09-03T13:10:40;29.40;66.50
69901;DHT22;57183;50.930;5.406;2022-09-03T13:13:28;29.60;64.40
69901;DHT22;57183;50.930;5.406;2022-09-03T13:19:02;29.80;64.40
69901;DHT22;57183;50.930;5.406;2022-09-03T13:21:34;29.90;64.60
69901;DHT22;57183;50.930;5.406;2022-09-03T13:24:25;30.00;64.20
69901;DHT22;57183;50.930;5.406;2022-09-03T13:32:28;30.00;63.40
69901;DHT22;57183;50.930;5.406;2022-09-03T13:38:37;30.20;62.70
69901;DHT22;57183;50.930;5.406;2022-09-03T13:43:44;29.90;61.00
69901;DHT22;57183;50.930;5.406;2022-09-03T13:46:24;30.10;59.20
69901;DHT22;57183;50.930;5.406;2022-09-03T13:49:31;30.10;59.30
69901;DHT22;57183;50.930;5.406;2022-09-03T13:52:22;30.20;60.10
69901;DHT22;57183;50.930;5.406;2022-09-03T13:54:52;30.50;59.60
69901;DHT22;57183;50.930;5.406;2022-09-03T13:57:37;30.30;59.50
69901;DHT22;57183;50.930;5.406;2022-09-03T14:00:11;30.30;59.50
69901;DHT22;57183;50.930;5.406;2022-09-03T14:16:38;29.70;63.50
69901;DHT22;57183;50.930;5.406;2022-09-03T14:22:14;29.50;64.80
69901;DHT22;57183;50.930;5.406;2022-09-03T14:25:03;29.40;65.30
69901;DHT22;57183;50.930;5.406;2022-09-03T14:27:31;29.20;65.20
69901;DHT22;57183;50.930;5.406;2022-09-03T14:35:56;30.10;63.70
69901;DHT22;57183;50.930;5.406;2022-09-03T14:54:44;29.80;68.10
69901;DHT22;57183;50.930;5.406;2022-09-03T14:59:59;28.70;82.30
69901;DHT22;57183;50.930;5.406;2022-09-03T15:05:13;26.50;90.30
69901;DHT22;57183;50.930;5.406;2022-09-03T15:08:07;26.20;92.30
69901;DHT22;57183;50.930;5.406;2022-09-03T15:10:58;26.00;92.30
69901;DHT22;57183;50.930;5.406;2022-09-03T15:16:12;26.10;92.70
69901;DHT22;57183;50.930;5.406;2022-09-03T15:24:50;26.10;94.90
69901;DHT22;57183;50.930;5.406;2022-09-03T15:30:14;26.20;93.10
69901;DHT22;57183;50.930;5.406;2022-09-03T15:37:58;28.60;90.50
69901;DHT22;57183;50.930;5.406;2022-09-03T15:40:31;30.10;86.10
69901;DHT22;57183;50.930;5.406;2022-09-03T15:43:18;31.60;77.50
69901;DHT22;57183;50.930;5.406;2022-09-03T15:51:31;34.30;67.50
69901;DHT22;57183;50.930;5.406;2022-09-03T15:57:04;35.10;64.90
69901;DHT22;57183;50.930;5.406;2022-09-03T15:59:50;34.00;65.40
69901;DHT22;57183;50.930;5.406;2022-09-03T16:12:39;28.70;85.90
69901;DHT22;57183;50.930;5.406;2022-09-03T16:15:13;28.80;87.00
69901;DHT22;57183;50.930;5.406;2022-09-03T16:20:42;30.50;79.70
69901;DHT22;57183;50.930;5.406;2022-09-03T16:36:30;29.10;82.70
69901;DHT22;57183;50.930;5.406;2022-09-03T16:39:18;28.70;85.40
69901;DHT22;57183;50.930;5.406;2022-09-03T16:47:54;27.70;84.10
69901;DHT22;57183;50.930;5.406;2022-09-03T16:53:14;27.30;86.30
69901;DHT22;57183;50.930;5.406;2022-09-03T16:58:22;27.20;87.10
69901;DHT22;57183;50.930;5.406;2022-09-03T17:03:56;27.10;89.50
69901;DHT22;57183;50.930;5.406;2022-09-03T17:06:27;27.00;89.30
69901;DHT22;57183;50.930;5.406;2022-09-03T17:19:51;26.50;88.60
69901;DHT22;57183;50.930;5.406;2022-09-03T17:25:34;26.20;90.20
69901;DHT22;57183;50.930;5.406;2022-09-03T17:36:26;25.80;91.70
69901;DHT22;57183;50.930;5.406;2022-09-03T17:42:03;25.60;92.70
69901;DHT22;57183;50.930;5.406;2022-09-03T17:50:28;25.10;93.50
69901;DHT22;57183;50.930;5.406;2022-09-03T17:53:11;25.00;94.60
69901;DHT22;57183;50.930;5.406;2022-09-03T17:55:44;24.80;94.70
69901;DHT22;57183;50.930;5.406;2022-09-03T17:58:31;24.80;95.60
69901;DHT22;57183;50.930;5.406;2022-09-03T18:01:22;24.70;95.90
69901;DHT22;57183;50.930;5.406;2022-09-03T18:04:17;24.60;96.10
69901;DHT22;57183;50.930;5.406;2022-09-03T18:10:16;24.50;96.70
69901;DHT22;57183;50.930;5.406;2022-09-03T18:13:02;24.50;96.80
69901;DHT22;57183;50.930;5.406;2022-09-03T18:18:18;24.40;97.70
69901;DHT22;57183;50.930;5.406;2022-09-03T18:20:50;24.30;97.70
69901;DHT22;57183;50.930;5.406;2022-09-03T18:24:00;24.30;97.90
69901;DHT22;57183;50.930;5.406;2022-09-03T18:26:51;24.20;97.90
69901;DHT22;57183;50.930;5.406;2022-09-03T18:30:02;24.20;97.60
69901;DHT22;57183;50.930;5.406;2022-09-03T18:32:46;24.10;96.90
69901;DHT22;57183;50.930;5.406;2022-09-03T18:35:31;24.10;96.60
69901;DHT22;57183;50.930;5.406;2022-09-03T18:38:24;24.10;97.10
69901;DHT22;57183;50.930;5.406;2022-09-03T18:45:00;24.00;96.90
69901;DHT22;57183;50.930;5.406;2022-09-03T18:47:51;23.80;98.40
69901;DHT22;57183;50.930;5.406;2022-09-03T18:54:28;23.70;98.90
69901;DHT22;57183;50.930;5.406;2022-09-03T18:57:31;23.70;98.10
69901;DHT22;57183;50.930;5.406;2022-09-03T19:00:22;23.60;98.60
69901;DHT22;57183;50.930;5.406;2022-09-03T19:03:28;23.50;98.70
69901;DHT22;57183;50.930;5.406;2022-09-03T19:06:28;23.40;98.10
69901;DHT22;57183;50.930;5.406;2022-09-03T19:15:23;23.40;98.70
69901;DHT22;57183;50.930;5.406;2022-09-03T19:24:18;23.30;98.10
69901;DHT22;57183;50.930;5.406;2022-09-03T19:27:06;23.40;97.10
69901;DHT22;57183;50.930;5.406;2022-09-03T19:30:13;23.30;97.80
69901;DHT22;57183;50.930;5.406;2022-09-03T19:45:25;22.80;99.10
69901;DHT22;57183;50.930;5.406;2022-09-03T19:54:24;22.60;98.70
69901;DHT22;57183;50.930;5.406;2022-09-03T19:57:12;22.60;99.00
69901;DHT22;57183;50.930;5.406;2022-09-03T19:59:57;22.50;99.20
69901;DHT22;57183;50.930;5.406;2022-09-03T20:02:46;22.50;99.40
69901;DHT22;57183;50.930;5.406;2022-09-03T20:05:31;22.50;99.70
69901;DHT22;57183;50.930;5.406;2022-09-03T20:08:16;22.40;99.70
69901;DHT22;57183;50.930;5.406;2022-09-03T20:11:02;22.40;99.90
69901;DHT22;57183;50.930;5.406;2022-09-03T20:13:28;22.30;99.90
69901;DHT22;57183;50.930;5.406;2022-09-03T20:26:00;21.80;99.90
69901;DHT22;57183;50.930;5.406;2022-09-03T20:28:32;21.70;99.90
69901;DHT22;57183;50.930;5.406;2022-09-03T20:31:09;21.70;99.90
69901;DHT22;57183;50.930;5.406;2022-09-03T20:39:40;21.80;99.90
69901;DHT22;57183;50.930;5.406;2022-09-03T20:44:53;21.90;99.90
69901;DHT22;57183;50.930;5.406;2022-09-03T20:47:42;21.80;99.90
69901;DHT22;57183;50.930;5.406;2022-09-03T20:53:39;21.60;99.90
69901;DHT22;57183;50.930;5.406;2022-09-03T21:04:41;21.20;99.90
69901;DHT22;57183;50.930;5.406;2022-09-03T21:15:12;20.90;99.90
69901;DHT22;57183;50.930;5.406;2022-09-03T21:20:59;20.70;99.90
69901;DHT22;57183;50.930;5.406;2022-09-03T21:23:31;20.60;99.90
69901;DHT22;57183;50.930;5.406;2022-09-03T21:31:33;20.50;99.90
69901;DHT22;57183;50.930;5.406;2022-09-03T21:34:08;20.40;99.90
69901;DHT22;57183;50.930;5.406;2022-09-03T21:36:37;20.40;99.90
69901;DHT22;57183;50.930;5.406;2022-09-03T21:39:21;20.30;99.90
69901;DHT22;57183;50.930;5.406;2022-09-03T21:42:05;20.30;99.90
69901;DHT22;57183;50.930;5.406;2022-09-03T21:47:11;20.20;99.90
69901;DHT22;57183;50.930;5.406;2022-09-03T21:52:50;20.40;99.90
69901;DHT22;57183;50.930;5.406;2022-09-03T21:55:21;20.30;99.90
69901;DHT22;57183;50.930;5.406;2022-09-03T21:58:23;20.30;99.90
69901;DHT22;57183;50.930;5.406;2022-09-03T22:00:55;20.30;99.90
69901;DHT22;57183;50.930;5.406;2022-09-03T22:03:24;20.20;99.90
69901;DHT22;57183;50.930;5.406;2022-09-03T22:05:59;20.20;99.90
69901;DHT22;57183;50.930;5.406;2022-09-03T22:08:41;20.10;99.90
69901;DHT22;57183;50.930;5.406;2022-09-03T22:11:26;20.00;99.90
69901;DHT22;57183;50.930;5.406;2022-09-03T22:16:33;19.80;99.90
69901;DHT22;57183;50.930;5.406;2022-09-03T22:18:59;19.70;99.90
69901;DHT22;57183;50.930;5.406;2022-09-03T22:21:43;19.70;99.90
69901;DHT22;57183;50.930;5.406;2022-09-03T22:24:14;19.60;99.90
69901;DHT22;57183;50.930;5.406;2022-09-03T22:30:15;19.50;99.90
69901;DHT22;57183;50.930;5.406;2022-09-03T22:33:10;19.60;99.90
69901;DHT22;57183;50.930;5.406;2022-09-03T22:35:41;19.70;99.90
69901;DHT22;57183;50.930;5.406;2022-09-03T22:40:48;19.80;99.90
69901;DHT22;57183;50.930;5.406;2022-09-03T22:43:19;19.70;99.90
69901;DHT22;57183;50.930;5.406;2022-09-03T22:51:22;19.20;99.90
69901;DHT22;57183;50.930;5.406;2022-09-03T22:56:38;19.30;99.90